sensor_id;sensor_type;location;lat;lon;timestamp;P1;durP1;ratioP1;P2;durP2;ratioP2
14619;SDS011;32125;48.518;9.050;2023-05-07T00:01:24;4.53;;;2.50;;
14619;SDS011;32125;48.518;9.050;2023-05-07T00:03:55;4.63;;;2.67;;
14619;SDS011;32125;48.518;9.050;2023-05-07T00:06:20;4.07;;;2.80;;
14619;SDS011;32125;48.518;9.050;2023-05-07T00:08:49;3.67;;;2.97;;
14619;SDS011;32125;48.518;9.050;2023-05-07T00:11:15;3.73;;;2.73;;
14619;SDS011;32125;48.518;9.050;2023-05-07T00:13:42;5.53;;;2.80;;
14619;SDS011;32125;48.518;9.050;2023-05-07T00:16:08;3.20;;;2.90;;
14619;SDS011;32125;48.518;9.050;2023-05-07T00:18:34;3.00;;;2.80;;
14619;SDS011;32125;48.518;9.050;2023-05-07T00:21:00;5.10;;;3.10;;
14619;SDS011;32125;48.518;9.050;2023-05-07T00:23:26;4.43;;;2.97;;
14619;SDS011;32125;48.518;9.050;2023-05-07T00:25:53;5.13;;;3.20;;
14619;SDS011;32125;48.518;9.050;2023-05-07T00:28:19;3.20;;;2.90;;
14619;SDS011;32125;48.518;9.050;2023-05-07T00:30:45;5.80;;;3.30;;
14619;SDS011;32125;48.518;9.050;2023-05-07T00:33:11;4.60;;;3.17;;
14619;SDS011;32125;48.518;9.050;2023-05-07T00:35:41;5.13;;;3.27;;
14619;SDS011;32125;48.518;9.050;2023-05-07T00:38:07;4.20;;;3.00;;
14619;SDS011;32125;48.518;9.050;2023-05-07T00:40:33;4.20;;;3.07;;
14619;SDS011;32125;48.518;9.050;2023-05-07T00:42:59;3.23;;;3.00;;
14619;SDS011;32125;48.518;9.050;2023-05-07T00:45:26;3.33;;;3.03;;
14619;SDS011;32125;48.518;9.050;2023-05-07T00:47:55;6.23;;;3.20;;
14619;SDS011;32125;48.518;9.050;2023-05-07T00:50:24;5.93;;;2.90;;
14619;SDS011;32125;48.518;9.050;2023-05-07T00:52:51;5.27;;;3.13;;
14619;SDS011;32125;48.518;9.050;2023-05-07T00:55:17;4.67;;;2.87;;
14619;SDS011;32125;48.518;9.050;2023-05-07T00:57:43;3.60;;;2.93;;
14619;SDS011;32125;48.518;9.050;2023-05-07T01:00:10;4.17;;;3.23;;
14619;SDS011;32125;48.518;9.050;2023-05-07T01:02:40;4.40;;;3.10;;
14619;SDS011;32125;48.518;9.050;2023-05-07T01:05:09;5.17;;;3.37;;
14619;SDS011;32125;48.518;9.050;2023-05-07T01:07:36;3.63;;;3.30;;
14619;SDS011;32125;48.518;9.050;2023-05-07T01:10:03;3.90;;;3.50;;
14619;SDS011;32125;48.518;9.050;2023-05-07T01:12:30;3.93;;;3.10;;
14619;SDS011;32125;48.518;9.050;2023-05-07T01:14:56;5.33;;;3.30;;
14619;SDS011;32125;48.518;9.050;2023-05-07T01:17:25;5.87;;;3.30;;
14619;SDS011;32125;48.518;9.050;2023-05-07T01:19:51;4.67;;;3.73;;
14619;SDS011;32125;48.518;9.050;2023-05-07T01:22:24;4.83;;;3.30;;
14619;SDS011;32125;48.518;9.050;2023-05-07T01:24:59;4.77;;;3.43;;
14619;SDS011;32125;48.518;9.050;2023-05-07T01:27:26;3.70;;;3.40;;
14619;SDS011;32125;48.518;9.050;2023-05-07T01:29:52;3.80;;;3.23;;
14619;SDS011;32125;48.518;9.050;2023-05-07T01:32:19;3.43;;;3.13;;
14619;SDS011;32125;48.518;9.050;2023-05-07T01:34:48;7.03;;;3.50;;
14619;SDS011;32125;48.518;9.050;2023-05-07T01:37:19;4.77;;;3.43;;
14619;SDS011;32125;48.518;9.050;2023-05-07T01:39:45;6.00;;;3.60;;
14619;SDS011;32125;48.518;9.050;2023-05-07T01:42:12;4.77;;;3.70;;
14619;SDS011;32125;48.518;9.050;2023-05-07T01:44:38;4.03;;;3.17;;
14619;SDS011;32125;48.518;9.050;2023-05-07T01:47:04;5.03;;;3.17;;
14619;SDS011;32125;48.518;9.050;2023-05-07T01:49:31;5.03;;;3.17;;
14619;SDS011;32125;48.518;9.050;2023-05-07T01:51:57;4.70;;;3.23;;
14619;SDS011;32125;48.518;9.050;2023-05-07T01:54:26;3.57;;;3.10;;
14619;SDS011;32125;48.518;9.050;2023-05-07T01:56:57;6.77;;;3.60;;
14619;SDS011;32125;48.518;9.050;2023-05-07T01:59:23;6.37;;;3.70;;
14619;SDS011;32125;48.518;9.050;2023-05-07T02:01:49;4.07;;;3.40;;
14619;SDS011;32125;48.518;9.050;2023-05-07T02:04:14;4.00;;;3.60;;
14619;SDS011;32125;48.518;9.050;2023-05-07T02:06:43;3.93;;;3.60;;
14619;SDS011;32125;48.518;9.050;2023-05-07T02:09:09;4.63;;;3.30;;
14619;SDS011;32125;48.518;9.050;2023-05-07T02:11:37;4.13;;;3.37;;
14619;SDS011;32125;48.518;9.050;2023-05-07T02:14:03;4.93;;;3.43;;
14619;SDS011;32125;48.518;9.050;2023-05-07T02:16:30;4.80;;;3.10;;
14619;SDS011;32125;48.518;9.050;2023-05-07T02:18:56;6.07;;;3.50;;
14619;SDS011;32125;48.518;9.050;2023-05-07T02:21:23;3.83;;;3.40;;
14619;SDS011;32125;48.518;9.050;2023-05-07T02:23:49;3.63;;;3.23;;
14619;SDS011;32125;48.518;9.050;2023-05-07T02:26:15;4.10;;;3.70;;
14619;SDS011;32125;48.518;9.050;2023-05-07T02:28:41;3.80;;;3.23;;
14619;SDS011;32125;48.518;9.050;2023-05-07T02:31:06;3.57;;;3.27;;
14619;SDS011;32125;48.518;9.050;2023-05-07T02:33:32;5.30;;;3.60;;
14619;SDS011;32125;48.518;9.050;2023-05-07T02:36:05;5.80;;;3.50;;
14619;SDS011;32125;48.518;9.050;2023-05-07T02:38:32;4.70;;;3.70;;
14619;SDS011;32125;48.518;9.050;2023-05-07T02:40:57;5.50;;;3.20;;
14619;SDS011;32125;48.518;9.050;2023-05-07T02:43:23;4.57;;;3.77;;
14619;SDS011;32125;48.518;9.050;2023-05-07T02:45:59;4.80;;;4.30;;
14619;SDS011;32125;48.518;9.050;2023-05-07T02:48:25;5.13;;;4.40;;
14619;SDS011;32125;48.518;9.050;2023-05-07T02:50:51;4.53;;;4.13;;
14619;SDS011;32125;48.518;9.050;2023-05-07T02:53:19;5.07;;;4.13;;
14619;SDS011;32125;48.518;9.050;2023-05-07T02:55:44;6.80;;;4.23;;
14619;SDS011;32125;48.518;9.050;2023-05-07T02:58:10;4.93;;;4.00;;
14619;SDS011;32125;48.518;9.050;2023-05-07T03:00:36;4.17;;;3.77;;
14619;SDS011;32125;48.518;9.050;2023-05-07T03:03:02;5.07;;;3.60;;
14619;SDS011;32125;48.518;9.050;2023-05-07T03:05:28;4.07;;;3.60;;
14619;SDS011;32125;48.518;9.050;2023-05-07T03:07:55;6.07;;;3.80;;
14619;SDS011;32125;48.518;9.050;2023-05-07T03:10:21;3.53;;;3.03;;
14619;SDS011;32125;48.518;9.050;2023-05-07T03:12:46;3.90;;;3.50;;
14619;SDS011;32125;48.518;9.050;2023-05-07T03:15:14;6.60;;;3.60;;
14619;SDS011;32125;48.518;9.050;2023-05-07T03:17:40;7.13;;;3.93;;
14619;SDS011;32125;48.518;9.050;2023-05-07T03:20:07;4.47;;;3.63;;
14619;SDS011;32125;48.518;9.050;2023-05-07T03:22:34;4.27;;;3.80;;
14619;SDS011;32125;48.518;9.050;2023-05-07T03:25:00;4.10;;;3.70;;
14619;SDS011;32125;48.518;9.050;2023-05-07T03:27:26;4.50;;;4.07;;
14619;SDS011;32125;48.518;9.050;2023-05-07T03:29:52;5.43;;;4.10;;
14619;SDS011;32125;48.518;9.050;2023-05-07T03:32:22;6.07;;;3.87;;
14619;SDS011;32125;48.518;9.050;2023-05-07T03:34:48;4.50;;;3.97;;
14619;SDS011;32125;48.518;9.050;2023-05-07T03:37:15;5.47;;;3.93;;
14619;SDS011;32125;48.518;9.050;2023-05-07T03:39:41;5.10;;;4.03;;
14619;SDS011;32125;48.518;9.050;2023-05-07T03:42:07;6.43;;;4.47;;
14619;SDS011;32125;48.518;9.050;2023-05-07T03:44:33;4.63;;;4.10;;
14619;SDS011;32125;48.518;9.050;2023-05-07T03:47:01;5.33;;;3.67;;
14619;SDS011;32125;48.518;9.050;2023-05-07T03:49:27;5.30;;;4.17;;
14619;SDS011;32125;48.518;9.050;2023-05-07T03:51:53;6.53;;;4.17;;
14619;SDS011;32125;48.518;9.050;2023-05-07T03:54:19;6.10;;;4.40;;
14619;SDS011;32125;48.518;9.050;2023-05-07T03:56:47;4.50;;;4.10;;
14619;SDS011;32125;48.518;9.050;2023-05-07T03:59:13;4.47;;;3.97;;
14619;SDS011;32125;48.518;9.050;2023-05-07T04:01:39;4.97;;;4.03;;
14619;SDS011;32125;48.518;9.050;2023-05-07T04:04:05;4.90;;;4.40;;
14619;SDS011;32125;48.518;9.050;2023-05-07T04:06:31;5.03;;;3.83;;
14619;SDS011;32125;48.518;9.050;2023-05-07T04:08:57;6.83;;;4.00;;
14619;SDS011;32125;48.518;9.050;2023-05-07T04:11:26;5.17;;;4.07;;
14619;SDS011;32125;48.518;9.050;2023-05-07T04:13:52;4.50;;;4.10;;
14619;SDS011;32125;48.518;9.050;2023-05-07T04:16:18;7.73;;;3.80;;
14619;SDS011;32125;48.518;9.050;2023-05-07T04:18:46;4.50;;;4.00;;
14619;SDS011;32125;48.518;9.050;2023-05-07T04:21:18;5.43;;;4.03;;
14619;SDS011;32125;48.518;9.050;2023-05-07T04:23:47;4.30;;;3.97;;
14619;SDS011;32125;48.518;9.050;2023-05-07T04:26:13;5.87;;;4.17;;
14619;SDS011;32125;48.518;9.050;2023-05-07T04:28:40;5.10;;;3.90;;
14619;SDS011;32125;48.518;9.050;2023-05-07T04:31:06;5.17;;;3.80;;
14619;SDS011;32125;48.518;9.050;2023-05-07T04:33:32;4.20;;;3.83;;
14619;SDS011;32125;48.518;9.050;2023-05-07T04:36:01;6.27;;;3.80;;
14619;SDS011;32125;48.518;9.050;2023-05-07T04:38:31;4.70;;;4.27;;
14619;SDS011;32125;48.518;9.050;2023-05-07T04:41:02;4.47;;;4.07;;
14619;SDS011;32125;48.518;9.050;2023-05-07T04:43:31;4.47;;;4.07;;
14619;SDS011;32125;48.518;9.050;2023-05-07T04:45:59;4.30;;;3.83;;
14619;SDS011;32125;48.518;9.050;2023-05-07T04:48:25;4.30;;;3.90;;
14619;SDS011;32125;48.518;9.050;2023-05-07T04:50:52;5.87;;;3.80;;
14619;SDS011;32125;48.518;9.050;2023-05-07T04:53:18;4.63;;;3.60;;
14619;SDS011;32125;48.518;9.050;2023-05-07T04:55:44;3.73;;;3.43;;
14619;SDS011;32125;48.518;9.050;2023-05-07T04:58:10;5.10;;;3.60;;
14619;SDS011;32125;48.518;9.050;2023-05-07T05:00:39;4.60;;;3.50;;
14619;SDS011;32125;48.518;9.050;2023-05-07T05:03:08;3.80;;;3.50;;
14619;SDS011;32125;48.518;9.050;2023-05-07T05:05:34;4.30;;;3.90;;
14619;SDS011;32125;48.518;9.050;2023-05-07T05:08:00;4.00;;;3.60;;
14619;SDS011;32125;48.518;9.050;2023-05-07T05:10:25;5.00;;;4.33;;
14619;SDS011;32125;48.518;9.050;2023-05-07T05:12:53;5.37;;;4.23;;
14619;SDS011;32125;48.518;9.050;2023-05-07T05:15:22;5.20;;;4.43;;
14619;SDS011;32125;48.518;9.050;2023-05-07T05:17:50;6.60;;;4.47;;
14619;SDS011;32125;48.518;9.050;2023-05-07T05:20:16;6.40;;;4.43;;
14619;SDS011;32125;48.518;9.050;2023-05-07T05:22:42;6.47;;;4.63;;
14619;SDS011;32125;48.518;9.050;2023-05-07T05:25:10;4.83;;;4.33;;
14619;SDS011;32125;48.518;9.050;2023-05-07T05:27:36;4.47;;;4.00;;
14619;SDS011;32125;48.518;9.050;2023-05-07T05:30:03;7.07;;;4.50;;
14619;SDS011;32125;48.518;9.050;2023-05-07T05:32:30;6.83;;;4.70;;
14619;SDS011;32125;48.518;9.050;2023-05-07T05:34:55;5.20;;;4.03;;
14619;SDS011;32125;48.518;9.050;2023-05-07T05:37:21;5.87;;;4.50;;
14619;SDS011;32125;48.518;9.050;2023-05-07T05:39:47;5.10;;;4.13;;
14619;SDS011;32125;48.518;9.050;2023-05-07T05:42:16;6.67;;;4.30;;
14619;SDS011;32125;48.518;9.050;2023-05-07T05:44:42;4.87;;;4.47;;
14619;SDS011;32125;48.518;9.050;2023-05-07T05:47:09;4.73;;;3.90;;
14619;SDS011;32125;48.518;9.050;2023-05-07T05:49:35;4.23;;;3.80;;
14619;SDS011;32125;48.518;9.050;2023-05-07T05:52:01;4.50;;;4.10;;
14619;SDS011;32125;48.518;9.050;2023-05-07T05:54:27;4.57;;;3.67;;
14619;SDS011;32125;48.518;9.050;2023-05-07T05:56:55;4.43;;;4.03;;
14619;SDS011;32125;48.518;9.050;2023-05-07T05:59:21;4.80;;;4.27;;
14619;SDS011;32125;48.518;9.050;2023-05-07T06:01:48;5.00;;;3.80;;
14619;SDS011;32125;48.518;9.050;2023-05-07T06:04:14;4.40;;;4.00;;
14619;SDS011;32125;48.518;9.050;2023-05-07T06:06:40;4.27;;;3.90;;
14619;SDS011;32125;48.518;9.050;2023-05-07T06:09:05;4.40;;;4.00;;
14619;SDS011;32125;48.518;9.050;2023-05-07T06:11:34;4.13;;;3.73;;
14619;SDS011;32125;48.518;9.050;2023-05-07T06:14:02;6.33;;;3.83;;
14619;SDS011;32125;48.518;9.050;2023-05-07T06:16:27;11.63;;;5.47;;
14619;SDS011;32125;48.518;9.050;2023-05-07T06:18:53;30.20;;;8.10;;
14619;SDS011;32125;48.518;9.050;2023-05-07T06:21:19;4.40;;;3.57;;
14619;SDS011;32125;48.518;9.050;2023-05-07T06:23:45;4.13;;;3.50;;
14619;SDS011;32125;48.518;9.050;2023-05-07T06:26:11;3.53;;;3.33;;
14619;SDS011;32125;48.518;9.050;2023-05-07T06:28:37;5.27;;;3.70;;
14619;SDS011;32125;48.518;9.050;2023-05-07T06:31:13;6.20;;;3.27;;
14619;SDS011;32125;48.518;9.050;2023-05-07T06:33:39;4.13;;;3.50;;
14619;SDS011;32125;48.518;9.050;2023-05-07T06:36:06;3.90;;;3.30;;
14619;SDS011;32125;48.518;9.050;2023-05-07T06:38:34;5.50;;;3.60;;
14619;SDS011;32125;48.518;9.050;2023-05-07T06:41:00;4.10;;;3.13;;
14619;SDS011;32125;48.518;9.050;2023-05-07T06:43:31;4.00;;;3.30;;
14619;SDS011;32125;48.518;9.050;2023-05-07T06:45:59;3.70;;;3.40;;
14619;SDS011;32125;48.518;9.050;2023-05-07T06:48:25;4.97;;;3.30;;
14619;SDS011;32125;48.518;9.050;2023-05-07T06:50:51;4.00;;;3.37;;
14619;SDS011;32125;48.518;9.050;2023-05-07T06:53:20;5.13;;;3.20;;
14619;SDS011;32125;48.518;9.050;2023-05-07T06:55:46;4.60;;;3.10;;
14619;SDS011;32125;48.518;9.050;2023-05-07T06:58:12;3.43;;;3.00;;
14619;SDS011;32125;48.518;9.050;2023-05-07T07:00:38;3.80;;;3.50;;
14619;SDS011;32125;48.518;9.050;2023-05-07T07:03:08;3.47;;;2.97;;
14619;SDS011;32125;48.518;9.050;2023-05-07T07:05:37;3.43;;;3.20;;
14619;SDS011;32125;48.518;9.050;2023-05-07T07:08:03;3.87;;;3.50;;
14619;SDS011;32125;48.518;9.050;2023-05-07T07:10:32;2.90;;;2.70;;
14619;SDS011;32125;48.518;9.050;2023-05-07T07:12:58;3.77;;;3.40;;
14619;SDS011;32125;48.518;9.050;2023-05-07T07:15:26;3.50;;;3.20;;
14619;SDS011;32125;48.518;9.050;2023-05-07T07:18:00;4.67;;;3.30;;
14619;SDS011;32125;48.518;9.050;2023-05-07T07:20:29;4.50;;;3.00;;
14619;SDS011;32125;48.518;9.050;2023-05-07T07:22:55;6.37;;;2.70;;
14619;SDS011;32125;48.518;9.050;2023-05-07T07:25:21;3.40;;;3.10;;
14619;SDS011;32125;48.518;9.050;2023-05-07T07:27:47;4.85;;;3.00;;
14619;SDS011;32125;48.518;9.050;2023-05-07T07:30:13;2.92;;;2.70;;
14619;SDS011;32125;48.518;9.050;2023-05-07T07:32:39;4.07;;;2.90;;
14619;SDS011;32125;48.518;9.050;2023-05-07T07:35:04;2.83;;;2.58;;
14619;SDS011;32125;48.518;9.050;2023-05-07T07:37:31;2.90;;;2.70;;
14619;SDS011;32125;48.518;9.050;2023-05-07T07:40:00;3.10;;;2.80;;
14619;SDS011;32125;48.518;9.050;2023-05-07T07:42:28;4.13;;;2.63;;
14619;SDS011;32125;48.518;9.050;2023-05-07T07:44:54;4.38;;;2.67;;
14619;SDS011;32125;48.518;9.050;2023-05-07T07:47:20;3.38;;;2.70;;
14619;SDS011;32125;48.518;9.050;2023-05-07T07:49:46;2.65;;;2.45;;
14619;SDS011;32125;48.518;9.050;2023-05-07T07:52:11;2.53;;;2.35;;
14619;SDS011;32125;48.518;9.050;2023-05-07T07:54:37;4.68;;;2.53;;
14619;SDS011;32125;48.518;9.050;2023-05-07T07:57:03;4.25;;;2.55;;
14619;SDS011;32125;48.518;9.050;2023-05-07T07:59:28;3.03;;;2.80;;
14619;SDS011;32125;48.518;9.050;2023-05-07T08:01:55;3.78;;;2.55;;
14619;SDS011;32125;48.518;9.050;2023-05-07T08:04:22;3.90;;;2.90;;
14619;SDS011;32125;48.518;9.050;2023-05-07T08:06:48;3.17;;;2.88;;
14619;SDS011;32125;48.518;9.050;2023-05-07T08:09:15;2.97;;;2.65;;
14619;SDS011;32125;48.518;9.050;2023-05-07T08:11:42;4.20;;;2.72;;
14619;SDS011;32125;48.518;9.050;2023-05-07T08:14:08;2.95;;;2.70;;
14619;SDS011;32125;48.518;9.050;2023-05-07T08:16:34;3.88;;;2.70;;
14619;SDS011;32125;48.518;9.050;2023-05-07T08:19:00;3.38;;;2.90;;
14619;SDS011;32125;48.518;9.050;2023-05-07T08:21:26;5.05;;;2.97;;
14619;SDS011;32125;48.518;9.050;2023-05-07T08:23:52;2.90;;;2.60;;
14619;SDS011;32125;48.518;9.050;2023-05-07T08:26:20;3.70;;;2.70;;
14619;SDS011;32125;48.518;9.050;2023-05-07T08:28:46;2.65;;;2.45;;
14619;SDS011;32125;48.518;9.050;2023-05-07T08:31:14;3.80;;;2.75;;
14619;SDS011;32125;48.518;9.050;2023-05-07T08:33:44;2.75;;;2.55;;
14619;SDS011;32125;48.518;9.050;2023-05-07T08:36:10;2.92;;;2.33;;
14619;SDS011;32125;48.518;9.050;2023-05-07T08:38:38;3.42;;;2.40;;
14619;SDS011;32125;48.518;9.050;2023-05-07T08:41:10;2.30;;;2.15;;
14619;SDS011;32125;48.518;9.050;2023-05-07T08:43:36;3.53;;;2.55;;
14619;SDS011;32125;48.518;9.050;2023-05-07T08:46:05;2.47;;;2.22;;
14619;SDS011;32125;48.518;9.050;2023-05-07T08:48:31;2.60;;;2.40;;
14619;SDS011;32125;48.518;9.050;2023-05-07T08:51:02;2.50;;;2.30;;
14619;SDS011;32125;48.518;9.050;2023-05-07T08:53:31;3.58;;;2.40;;
14619;SDS011;32125;48.518;9.050;2023-05-07T08:55:59;4.07;;;2.40;;
14619;SDS011;32125;48.518;9.050;2023-05-07T08:58:26;4.03;;;2.28;;
14619;SDS011;32125;48.518;9.050;2023-05-07T09:00:52;2.88;;;2.20;;
14619;SDS011;32125;48.518;9.050;2023-05-07T09:03:18;4.07;;;2.42;;
14619;SDS011;32125;48.518;9.050;2023-05-07T09:05:44;3.78;;;2.10;;
14619;SDS011;32125;48.518;9.050;2023-05-07T09:08:14;3.05;;;2.28;;
14619;SDS011;32125;48.518;9.050;2023-05-07T09:10:40;2.92;;;2.20;;
14619;SDS011;32125;48.518;9.050;2023-05-07T09:13:06;2.95;;;2.30;;
14619;SDS011;32125;48.518;9.050;2023-05-07T09:15:32;2.45;;;2.25;;
14619;SDS011;32125;48.518;9.050;2023-05-07T09:18:00;2.30;;;2.10;;
14619;SDS011;32125;48.518;9.050;2023-05-07T09:20:26;5.15;;;1.90;;
14619;SDS011;32125;48.518;9.050;2023-05-07T09:22:54;2.10;;;1.90;;
14619;SDS011;32125;48.518;9.050;2023-05-07T09:25:30;2.08;;;1.98;;
14619;SDS011;32125;48.518;9.050;2023-05-07T09:27:57;2.15;;;1.90;;
14619;SDS011;32125;48.518;9.050;2023-05-07T09:30:26;2.30;;;2.10;;
14619;SDS011;32125;48.518;9.050;2023-05-07T09:32:55;1.98;;;1.88;;
14619;SDS011;32125;48.518;9.050;2023-05-07T09:35:26;2.33;;;2.00;;
14619;SDS011;32125;48.518;9.050;2023-05-07T09:37:53;2.13;;;1.92;;
14619;SDS011;32125;48.518;9.050;2023-05-07T09:40:22;3.70;;;2.30;;
14619;SDS011;32125;48.518;9.050;2023-05-07T09:42:49;4.18;;;2.00;;
14619;SDS011;32125;48.518;9.050;2023-05-07T09:45:16;2.50;;;2.30;;
14619;SDS011;32125;48.518;9.050;2023-05-07T09:47:58;3.28;;;2.03;;
14619;SDS011;32125;48.518;9.050;2023-05-07T09:50:28;1.92;;;1.83;;
14619;SDS011;32125;48.518;9.050;2023-05-07T09:52:55;3.10;;;2.00;;
14619;SDS011;32125;48.518;9.050;2023-05-07T09:55:22;2.08;;;1.73;;
14619;SDS011;32125;48.518;9.050;2023-05-07T09:57:51;1.95;;;1.80;;
14619;SDS011;32125;48.518;9.050;2023-05-07T10:00:18;1.80;;;1.70;;
14619;SDS011;32125;48.518;9.050;2023-05-07T10:02:47;1.92;;;1.67;;
14619;SDS011;32125;48.518;9.050;2023-05-07T10:05:14;1.73;;;1.63;;
14619;SDS011;32125;48.518;9.050;2023-05-07T10:07:41;2.00;;;1.80;;
14619;SDS011;32125;48.518;9.050;2023-05-07T10:10:07;1.70;;;1.60;;
14619;SDS011;32125;48.518;9.050;2023-05-07T10:12:33;2.85;;;1.70;;
14619;SDS011;32125;48.518;9.050;2023-05-07T10:15:05;3.72;;;1.90;;
14619;SDS011;32125;48.518;9.050;2023-05-07T10:17:31;2.03;;;1.77;;
14619;SDS011;32125;48.518;9.050;2023-05-07T10:20:03;2.22;;;1.50;;
14619;SDS011;32125;48.518;9.050;2023-05-07T10:22:31;2.17;;;2.00;;
14619;SDS011;32125;48.518;9.050;2023-05-07T10:25:03;3.22;;;1.83;;
14619;SDS011;32125;48.518;9.050;2023-05-07T10:27:36;2.17;;;2.00;;
14619;SDS011;32125;48.518;9.050;2023-05-07T10:32:49;1.75;;;1.65;;
14619;SDS011;32125;48.518;9.050;2023-05-07T10:35:20;1.70;;;1.60;;
14619;SDS011;32125;48.518;9.050;2023-05-07T10:37:49;3.05;;;1.70;;
14619;SDS011;32125;48.518;9.050;2023-05-07T10:40:18;2.13;;;1.60;;
14619;SDS011;32125;48.518;9.050;2023-05-07T10:43:01;2.88;;;1.70;;
14619;SDS011;32125;48.518;9.050;2023-05-07T10:45:30;2.67;;;1.75;;
14619;SDS011;32125;48.518;9.050;2023-05-07T10:50:38;2.58;;;1.70;;
14619;SDS011;32125;48.518;9.050;2023-05-07T10:55:48;1.63;;;1.52;;
14619;SDS011;32125;48.518;9.050;2023-05-07T11:00:47;1.70;;;1.60;;
14619;SDS011;32125;48.518;9.050;2023-05-07T11:03:13;3.65;;;1.63;;
14619;SDS011;32125;48.518;9.050;2023-05-07T11:05:40;1.77;;;1.60;;
14619;SDS011;32125;48.518;9.050;2023-05-07T11:08:07;2.15;;;1.50;;
14619;SDS011;32125;48.518;9.050;2023-05-07T11:13:18;1.92;;;1.70;;
14619;SDS011;32125;48.518;9.050;2023-05-07T11:15:47;2.92;;;1.60;;
14619;SDS011;32125;48.518;9.050;2023-05-07T11:18:16;1.50;;;1.40;;
14619;SDS011;32125;48.518;9.050;2023-05-07T11:26:06;2.15;;;1.65;;
14619;SDS011;32125;48.518;9.050;2023-05-07T11:28:50;1.83;;;1.65;;
14619;SDS011;32125;48.518;9.050;2023-05-07T11:31:20;1.50;;;1.40;;
14619;SDS011;32125;48.518;9.050;2023-05-07T11:33:49;2.88;;;1.50;;
14619;SDS011;32125;48.518;9.050;2023-05-07T11:36:15;1.45;;;1.35;;
14619;SDS011;32125;48.518;9.050;2023-05-07T11:38:42;1.60;;;1.50;;
14619;SDS011;32125;48.518;9.050;2023-05-07T11:41:10;1.65;;;1.55;;
14619;SDS011;32125;48.518;9.050;2023-05-07T11:43:36;3.45;;;1.80;;
14619;SDS011;32125;48.518;9.050;2023-05-07T11:46:05;1.70;;;1.60;;
14619;SDS011;32125;48.518;9.050;2023-05-07T11:48:33;1.70;;;1.60;;
14619;SDS011;32125;48.518;9.050;2023-05-07T11:53:25;1.60;;;1.50;;
14619;SDS011;32125;48.518;9.050;2023-05-07T11:55:57;1.77;;;1.67;;
14619;SDS011;32125;48.518;9.050;2023-05-07T11:58:23;2.25;;;1.70;;
14619;SDS011;32125;48.518;9.050;2023-05-07T12:00:53;2.08;;;1.90;;
14619;SDS011;32125;48.518;9.050;2023-05-07T12:03:19;1.70;;;1.60;;
14619;SDS011;32125;48.518;9.050;2023-05-07T12:05:46;1.83;;;1.63;;
14619;SDS011;32125;48.518;9.050;2023-05-07T12:08:18;1.63;;;1.52;;
14619;SDS011;32125;48.518;9.050;2023-05-07T12:10:45;1.90;;;1.70;;
14619;SDS011;32125;48.518;9.050;2023-05-07T12:15:42;1.90;;;1.80;;
14619;SDS011;32125;48.518;9.050;2023-05-07T12:18:08;2.88;;;1.60;;
14619;SDS011;32125;48.518;9.050;2023-05-07T12:20:35;1.70;;;1.60;;
14619;SDS011;32125;48.518;9.050;2023-05-07T12:23:01;2.45;;;1.73;;
14619;SDS011;32125;48.518;9.050;2023-05-07T12:25:30;2.75;;;1.80;;
14619;SDS011;32125;48.518;9.050;2023-05-07T12:28:00;2.63;;;1.58;;
14619;SDS011;32125;48.518;9.050;2023-05-07T12:30:26;3.78;;;1.90;;
14619;SDS011;32125;48.518;9.050;2023-05-07T12:32:53;8.02;;;1.95;;
14619;SDS011;32125;48.518;9.050;2023-05-07T12:35:30;8.93;;;2.35;;
14619;SDS011;32125;48.518;9.050;2023-05-07T12:37:59;2.20;;;1.83;;
14619;SDS011;32125;48.518;9.050;2023-05-07T12:40:41;4.15;;;1.90;;
14619;SDS011;32125;48.518;9.050;2023-05-07T12:45:42;1.92;;;1.80;;
14619;SDS011;32125;48.518;9.050;2023-05-07T12:48:11;2.65;;;1.60;;
14619;SDS011;32125;48.518;9.050;2023-05-07T12:50:38;8.85;;;2.40;;
14619;SDS011;32125;48.518;9.050;2023-05-07T12:53:04;5.10;;;2.17;;
14619;SDS011;32125;48.518;9.050;2023-05-07T12:55:31;3.63;;;2.17;;
14619;SDS011;32125;48.518;9.050;2023-05-07T12:57:57;8.85;;;2.47;;
14619;SDS011;32125;48.518;9.050;2023-05-07T13:00:38;7.40;;;2.10;;
14619;SDS011;32125;48.518;9.050;2023-05-07T13:03:04;2.50;;;2.15;;
14619;SDS011;32125;48.518;9.050;2023-05-07T13:05:31;2.65;;;2.00;;
14619;SDS011;32125;48.518;9.050;2023-05-07T13:07:57;5.38;;;2.40;;
14619;SDS011;32125;48.518;9.050;2023-05-07T13:10:26;4.75;;;2.35;;
14619;SDS011;32125;48.518;9.050;2023-05-07T13:12:53;6.50;;;2.65;;
14619;SDS011;32125;48.518;9.050;2023-05-07T13:15:19;6.93;;;2.78;;
14619;SDS011;32125;48.518;9.050;2023-05-07T13:17:48;6.63;;;3.10;;
14619;SDS011;32125;48.518;9.050;2023-05-07T13:20:14;7.40;;;3.25;;
14619;SDS011;32125;48.518;9.050;2023-05-07T13:22:40;5.65;;;3.38;;
14619;SDS011;32125;48.518;9.050;2023-05-07T13:25:06;6.00;;;3.08;;
14619;SDS011;32125;48.518;9.050;2023-05-07T13:27:33;5.32;;;3.05;;
14619;SDS011;32125;48.518;9.050;2023-05-07T13:30:05;14.13;;;2.90;;
14619;SDS011;32125;48.518;9.050;2023-05-07T13:32:33;6.53;;;2.80;;
14619;SDS011;32125;48.518;9.050;2023-05-07T13:35:03;4.95;;;2.92;;
14619;SDS011;32125;48.518;9.050;2023-05-07T13:37:32;7.68;;;2.83;;
14619;SDS011;32125;48.518;9.050;2023-05-07T13:39:58;5.68;;;3.22;;
14619;SDS011;32125;48.518;9.050;2023-05-07T13:42:24;8.70;;;2.90;;
14619;SDS011;32125;48.518;9.050;2023-05-07T13:44:55;6.05;;;2.72;;
14619;SDS011;32125;48.518;9.050;2023-05-07T13:47:21;9.38;;;3.30;;
14619;SDS011;32125;48.518;9.050;2023-05-07T13:49:47;8.27;;;2.72;;
14619;SDS011;32125;48.518;9.050;2023-05-07T13:52:16;15.05;;;2.95;;
14619;SDS011;32125;48.518;9.050;2023-05-07T13:54:42;9.53;;;2.87;;
14619;SDS011;32125;48.518;9.050;2023-05-07T13:57:08;8.00;;;2.67;;
14619;SDS011;32125;48.518;9.050;2023-05-07T13:59:34;4.53;;;3.00;;
14619;SDS011;32125;48.518;9.050;2023-05-07T14:02:00;4.22;;;2.70;;
14619;SDS011;32125;48.518;9.050;2023-05-07T14:04:26;6.47;;;2.70;;
14619;SDS011;32125;48.518;9.050;2023-05-07T14:06:52;6.30;;;3.45;;
14619;SDS011;32125;48.518;9.050;2023-05-07T14:09:18;6.47;;;3.40;;
14619;SDS011;32125;48.518;9.050;2023-05-07T14:11:46;8.40;;;3.50;;
14619;SDS011;32125;48.518;9.050;2023-05-07T14:14:16;8.10;;;3.60;;
14619;SDS011;32125;48.518;9.050;2023-05-07T14:16:44;8.73;;;3.67;;
14619;SDS011;32125;48.518;9.050;2023-05-07T14:19:12;4.50;;;3.43;;
14619;SDS011;32125;48.518;9.050;2023-05-07T14:21:38;6.60;;;3.63;;
14619;SDS011;32125;48.518;9.050;2023-05-07T14:24:06;7.27;;;4.13;;
14619;SDS011;32125;48.518;9.050;2023-05-07T14:26:35;5.63;;;4.20;;
14619;SDS011;32125;48.518;9.050;2023-05-07T14:29:01;5.13;;;3.67;;
14619;SDS011;32125;48.518;9.050;2023-05-07T14:31:27;5.67;;;3.77;;
14619;SDS011;32125;48.518;9.050;2023-05-07T14:33:53;6.20;;;4.00;;
14619;SDS011;32125;48.518;9.050;2023-05-07T14:36:22;6.43;;;4.30;;
14619;SDS011;32125;48.518;9.050;2023-05-07T14:38:51;5.37;;;3.97;;
14619;SDS011;32125;48.518;9.050;2023-05-07T14:41:17;5.17;;;3.80;;
14619;SDS011;32125;48.518;9.050;2023-05-07T14:43:43;5.37;;;3.50;;
14619;SDS011;32125;48.518;9.050;2023-05-07T14:46:15;5.47;;;3.93;;
14619;SDS011;32125;48.518;9.050;2023-05-07T14:48:41;5.17;;;4.13;;
14619;SDS011;32125;48.518;9.050;2023-05-07T14:51:07;4.47;;;3.87;;
14619;SDS011;32125;48.518;9.050;2023-05-07T14:53:33;5.90;;;4.30;;
14619;SDS011;32125;48.518;9.050;2023-05-07T14:55:59;5.23;;;3.90;;
14619;SDS011;32125;48.518;9.050;2023-05-07T14:58:25;6.60;;;4.43;;
14619;SDS011;32125;48.518;9.050;2023-05-07T15:00:51;6.37;;;4.00;;
14619;SDS011;32125;48.518;9.050;2023-05-07T15:03:17;5.23;;;3.77;;
14619;SDS011;32125;48.518;9.050;2023-05-07T15:05:43;6.53;;;3.93;;
14619;SDS011;32125;48.518;9.050;2023-05-07T15:08:15;5.93;;;3.83;;
14619;SDS011;32125;48.518;9.050;2023-05-07T15:10:41;5.13;;;3.30;;
14619;SDS011;32125;48.518;9.050;2023-05-07T15:13:08;5.27;;;4.00;;
14619;SDS011;32125;48.518;9.050;2023-05-07T15:15:36;4.60;;;3.40;;